Time;durP1;ratioP1;P1;durP2;ratioP2;P2;SDS_P1;SDS_P2;PMS_P1;PMS_P2;Temp;Humidity;BMP_temperature;BMP_pressure;BME280_temperature;BME280_humidity;BME280_pressure;Samples;Min_cycle;Max_cycle;Signal;HPM_P1;HPM_P2
2021/04/18 00:00:26;;;;;;;7.63;5.30;;;7.50;99.90;;;;;;5052976;28;20644;-68
2021/04/18 00:02:52;;;;;;;7.23;4.80;;;7.40;99.90;;;;;;5052687;28;20149;-68
2021/04/18 00:05:21;;;;;;;7.70;4.47;;;7.40;99.90;;;;;;5052460;28;20484;-68
2021/04/18 00:07:47;;;;;;;7.67;4.40;;;7.40;99.90;;;;;;5072982;28;20201;-68
2021/04/18 00:10:13;;;;;;;8.10;4.90;;;7.40;99.90;;;;;;5073027;28;20390;-68
2021/04/18 00:12:38;;;;;;;7.37;4.73;;;7.30;99.90;;;;;;5072722;28;20398;-68
2021/04/18 00:15:09;;;;;;;7.63;5.20;;;7.30;99.90;;;;;;5058378;28;20426;-68
2021/04/18 00:17:34;;;;;;;7.60;4.97;;;7.30;99.90;;;;;;5052727;28;20156;-68
2021/04/18 00:20:00;;;;;;;8.13;5.40;;;7.30;99.90;;;;;;5052538;28;20405;-68
2021/04/18 00:22:25;;;;;;;7.27;4.70;;;7.30;99.90;;;;;;5053216;28;20243;-68
2021/04/18 00:24:51;;;;;;;11.20;5.90;;;7.20;99.90;;;;;;5052968;28;20667;-68
2021/04/18 00:27:16;;;;;;;6.00;5.20;;;7.20;99.90;;;;;;5053683;28;20235;-68
2021/04/18 00:29:42;;;;;;;5.53;4.37;;;7.20;99.90;;;;;;5056535;28;20515;-69
2021/04/18 00:32:08;;;;;;;7.23;5.50;;;7.20;99.90;;;;;;5057204;28;20592;-68
2021/04/18 00:34:33;;;;;;;9.93;6.10;;;7.10;99.90;;;;;;5056547;28;20156;-68
2021/04/18 00:36:59;;;;;;;6.40;4.93;;;7.10;99.90;;;;;;5056883;28;20167;-68
2021/04/18 00:39:24;;;;;;;8.50;5.00;;;7.10;99.90;;;;;;5056680;28;20239;-68
2021/04/18 00:41:50;;;;;;;7.80;4.47;;;7.00;99.90;;;;;;5056147;28;20164;-68
2021/04/18 00:44:15;;;;;;;8.13;4.80;;;7.00;99.90;;;;;;5056293;28;20179;-68
2021/04/18 00:46:41;;;;;;;9.73;4.63;;;7.00;99.90;;;;;;5056305;28;20195;-68
2021/04/18 00:49:07;;;;;;;8.03;4.60;;;7.00;99.90;;;;;;5056808;28;20176;-68
2021/04/18 00:51:33;;;;;;;11.23;5.70;;;7.00;99.90;;;;;;5056661;28;20156;-68
2021/04/18 00:53:59;;;;;;;8.67;4.47;;;7.00;99.90;;;;;;5056444;28;20863;-68
2021/04/18 00:56:25;;;;;;;6.93;6.10;;;7.00;99.90;;;;;;5056099;28;20397;-68
2021/04/18 00:58:51;;;;;;;10.33;4.97;;;7.00;99.90;;;;;;5056101;28;20192;-68
2021/04/18 01:01:16;;;;;;;5.30;4.80;;;7.00;99.90;;;;;;5056120;28;20156;-68
2021/04/18 01:03:42;;;;;;;6.83;5.33;;;7.10;99.90;;;;;;5056131;28;20412;-68
2021/04/18 01:06:07;;;;;;;6.97;5.23;;;7.10;99.90;;;;;;5057051;28;20215;-68
2021/04/18 01:08:33;;;;;;;6.00;5.40;;;7.10;99.90;;;;;;5055996;28;20497;-68
2021/04/18 01:10:59;;;;;;;7.43;4.90;;;7.10;99.90;;;;;;5055800;28;20652;-68
2021/04/18 01:13:24;;;;;;;6.67;5.20;;;7.10;99.90;;;;;;5055677;28;20172;-68
2021/04/18 01:15:51;;;;;;;7.47;4.90;;;7.20;99.90;;;;;;5055796;28;20511;-68
2021/04/18 01:18:17;;;;;;;18.10;5.80;;;7.20;99.90;;;;;;5055721;28;20160;-68
2021/04/18 01:20:42;;;;;;;9.67;4.73;;;7.30;99.90;;;;;;5056021;28;20470;-68
2021/04/18 01:23:08;;;;;;;9.93;5.47;;;7.30;99.90;;;;;;5056310;28;20172;-68
2021/04/18 01:25:39;;;;;;;7.43;4.97;;;7.40;99.90;;;;;;5055460;28;20231;-69
2021/04/18 01:28:05;;;;;;;9.30;5.30;;;7.40;99.90;;;;;;5055510;28;20522;-68
2021/04/18 01:30:30;;;;;;;7.77;5.73;;;7.40;99.90;;;;;;5055355;28;20397;-68
2021/04/18 01:32:58;;;;;;;7.60;5.20;;;7.50;99.90;;;;;;5055416;28;20421;-68
2021/04/18 01:35:24;;;;;;;7.23;4.33;;;7.50;99.90;;;;;;5056094;28;20236;-68
2021/04/18 01:37:51;;;;;;;9.70;6.33;;;7.50;99.90;;;;;;5054849;28;20424;-68
2021/04/18 01:40:19;;;;;;;11.17;5.53;;;7.50;99.90;;;;;;5055831;28;20241;-68
2021/04/18 01:42:46;;;;;;;12.47;5.87;;;7.50;99.90;;;;;;5055233;28;20402;-68
2021/04/18 01:45:13;;;;;;;6.60;5.10;;;7.50;99.90;;;;;;5055136;28;20387;-68
2021/04/18 01:47:39;;;;;;;8.40;6.27;;;7.50;99.90;;;;;;5055141;28;20884;-68
2021/04/18 01:50:08;;;;;;;11.90;5.97;;;7.40;99.90;;;;;;5055808;28;20399;-68
2021/04/18 01:52:33;;;;;;;7.80;5.23;;;7.40;99.90;;;;;;5054983;28;20191;-68
2021/04/18 01:54:59;;;;;;;8.67;4.33;;;7.30;99.90;;;;;;5054970;28;21249;-68
2021/04/18 01:57:24;;;;;;;11.20;5.97;;;7.20;99.90;;;;;;5055450;28;20559;-68
2021/04/18 01:59:50;;;;;;;6.67;4.93;;;7.20;99.90;;;;;;5054882;28;20184;-68
2021/04/18 02:02:15;;;;;;;6.90;5.47;;;7.20;99.90;;;;;;5054948;28;20156;-68
2021/04/18 02:04:41;;;;;;;10.70;5.33;;;7.10;99.90;;;;;;5058574;28;20184;-68
2021/04/18 02:07:08;;;;;;;8.43;5.20;;;7.10;99.90;;;;;;5074770;28;20340;-68
2021/04/18 02:09:35;;;;;;;10.83;6.00;;;7.10;99.90;;;;;;5075453;28;20242;-68
2021/04/18 02:12:04;;;;;;;11.47;5.53;;;7.10;99.90;;;;;;5074737;28;20724;-68
2021/04/18 02:14:30;;;;;;;10.03;6.30;;;7.10;99.90;;;;;;5056541;28;20456;-68
2021/04/18 02:16:56;;;;;;;8.13;5.67;;;7.10;99.90;;;;;;5054552;28;20410;-68
2021/04/18 02:19:21;;;;;;;10.93;5.20;;;7.10;99.90;;;;;;5054530;28;20399;-68
2021/04/18 02:21:47;;;;;;;9.90;5.30;;;7.20;99.90;;;;;;5054421;28;20152;-68
2021/04/18 02:24:13;;;;;;;7.73;5.37;;;7.20;99.90;;;;;;5054510;28;20206;-68
2021/04/18 02:26:39;;;;;;;8.73;5.40;;;7.20;99.90;;;;;;5054336;28;20449;-68
2021/04/18 02:29:05;;;;;;;7.47;5.20;;;7.30;99.90;;;;;;5054560;28;20391;-68
2021/04/18 02:31:31;;;;;;;7.67;5.70;;;7.30;99.90;;;;;;5054932;28;20184;-68
2021/04/18 02:33:56;;;;;;;7.80;5.30;;;7.40;99.90;;;;;;5054490;28;20395;-68
2021/04/18 02:36:22;;;;;;;8.60;5.70;;;7.40;99.90;;;;;;5054322;28;20164;-68
2021/04/18 02:38:47;;;;;;;9.97;5.13;;;7.40;99.90;;;;;;5054667;28;20164;-68
2021/04/18 02:41:13;;;;;;;12.13;5.53;;;7.40;99.90;;;;;;5054401;28;20157;-68
2021/04/18 02:43:39;;;;;;;7.07;5.90;;;7.40;99.90;;;;;;5054132;28;20180;-68
2021/04/18 02:46:04;;;;;;;7.60;6.00;;;7.40;99.90;;;;;;5053906;28;20281;-68
2021/04/18 02:48:30;;;;;;;6.40;5.30;;;7.40;99.90;;;;;;5054485;28;20189;-68
2021/04/18 02:50:56;;;;;;;6.93;5.97;;;7.50;99.90;;;;;;5053801;28;20206;-68
2021/04/18 02:53:22;;;;;;;9.13;6.10;;;7.50;99.90;;;;;;5054026;28;20557;-68
2021/04/18 02:55:48;;;;;;;9.00;5.83;;;7.50;99.90;;;;;;5053873;28;20422;-68
2021/04/18 02:58:14;;;;;;;8.53;5.90;;;7.50;99.90;;;;;;5053771;28;20437;-68
2021/04/18 03:00:39;;;;;;;7.17;5.50;;;7.40;99.90;;;;;;5053859;28;20188;-68
2021/04/18 03:03:05;;;;;;;8.77;5.93;;;7.50;99.90;;;;;;5053756;28;20744;-68
2021/04/18 03:05:31;;;;;;;5.40;4.90;;;7.50;99.90;;;;;;5064945;28;20281;-68
2021/04/18 03:07:57;;;;;;;7.50;5.17;;;7.40;99.90;;;;;;5073746;28;20429;-68
2021/04/18 03:10:22;;;;;;;11.17;5.93;;;7.40;99.90;;;;;;5073600;28;20452;-68
2021/04/18 03:12:48;;;;;;;6.53;5.67;;;7.40;99.90;;;;;;5073470;28;20152;-68
2021/04/18 03:15:14;;;;;;;7.67;5.53;;;7.40;99.90;;;;;;5073462;28;20188;-68
2021/04/18 03:17:41;;;;;;;9.43;5.80;;;7.40;99.90;;;;;;5073479;28;20586;-68
2021/04/18 03:20:06;;;;;;;9.40;7.40;;;7.40;99.90;;;;;;5074138;28;20398;-68
2021/04/18 03:22:32;;;;;;;7.23;6.30;;;7.40;99.90;;;;;;5054825;28;20816;-68
2021/04/18 03:24:58;;;;;;;6.83;5.77;;;7.50;99.90;;;;;;5053335;28;20765;-68
2021/04/18 03:27:23;;;;;;;10.33;6.60;;;7.50;99.90;;;;;;5053386;28;20634;-68
2021/04/18 03:29:49;;;;;;;8.20;6.70;;;7.50;99.90;;;;;;5053233;28;20511;-68
2021/04/18 03:32:14;;;;;;;11.73;5.73;;;7.50;99.90;;;;;;5053286;28;20611;-68
2021/04/18 03:34:40;;;;;;;6.97;5.33;;;7.50;99.90;;;;;;5053765;28;20514;-68
2021/04/18 03:37:06;;;;;;;8.93;6.00;;;7.50;99.90;;;;;;5053410;28;20538;-68
2021/04/18 03:39:32;;;;;;;7.70;6.10;;;7.50;99.90;;;;;;5053477;28;20184;-68
2021/04/18 03:41:57;;;;;;;7.73;5.87;;;7.50;99.90;;;;;;5053076;28;20391;-68
2021/04/18 03:44:23;;;;;;;7.43;5.53;;;7.50;99.90;;;;;;5053189;28;20156;-68
2021/04/18 03:46:49;;;;;;;8.90;5.97;;;7.50;99.90;;;;;;5052931;28;20216;-68
2021/04/18 03:49:14;;;;;;;9.80;6.60;;;7.50;99.90;;;;;;5053369;28;20613;-68
2021/04/18 03:51:40;;;;;;;7.63;6.40;;;7.50;99.90;;;;;;5052922;28;20159;-68
2021/04/18 03:54:05;;;;;;;8.50;6.60;;;7.50;99.90;;;;;;5053007;28;20160;-68
2021/04/18 03:56:31;;;;;;;8.30;6.23;;;7.50;99.90;;;;;;5053433;28;20230;-68
2021/04/18 03:58:56;;;;;;;6.37;5.60;;;7.50;99.90;;;;;;5052699;28;20211;-68
2021/04/18 04:01:22;;;;;;;8.00;6.27;;;7.50;99.90;;;;;;5053180;28;20171;-68
2021/04/18 04:03:47;;;;;;;12.07;6.53;;;7.50;99.90;;;;;;5054367;28;20609;-68
2021/04/18 04:06:13;;;;;;;7.40;6.70;;;7.50;99.90;;;;;;5068740;28;20655;-68
2021/04/18 04:08:38;;;;;;;14.10;7.07;;;7.50;99.90;;;;;;5072767;28;20186;-68
2021/04/18 04:11:04;;;;;;;7.13;5.30;;;7.50;99.90;;;;;;5072822;28;20155;-68
2021/04/18 04:13:30;;;;;;;10.13;6.97;;;7.50;99.90;;;;;;5054781;28;20175;-68
2021/04/18 04:15:55;;;;;;;7.80;7.00;;;7.60;99.90;;;;;;5054044;28;20180;-68
2021/04/18 04:18:21;;;;;;;8.07;6.40;;;7.60;99.90;;;;;;5054346;28;20153;-68
2021/04/18 04:20:46;;;;;;;7.47;6.07;;;7.60;99.90;;;;;;5052700;28;20191;-68
2021/04/18 04:23:12;;;;;;;7.40;6.50;;;7.60;99.90;;;;;;5052907;28;20184;-68
2021/04/18 04:25:37;;;;;;;8.07;6.20;;;7.50;99.90;;;;;;5052546;28;20199;-68
2021/04/18 04:28:06;;;;;;;11.20;7.77;;;7.50;99.90;;;;;;5052582;28;20268;-68
2021/04/18 04:30:32;;;;;;;10.17;6.90;;;7.50;99.90;;;;;;5053581;28;20172;-68
2021/04/18 04:32:58;;;;;;;10.00;7.03;;;7.50;99.90;;;;;;5053836;28;20394;-68
2021/04/18 04:35:23;;;;;;;9.43;6.97;;;7.60;99.90;;;;;;5052707;28;20187;-68
2021/04/18 04:37:49;;;;;;;8.70;6.47;;;7.60;99.90;;;;;;5052443;28;20207;-68
2021/04/18 04:40:15;;;;;;;7.80;6.03;;;7.60;99.90;;;;;;5053049;28;20628;-68
2021/04/18 04:42:40;;;;;;;8.47;6.83;;;7.60;99.90;;;;;;5052519;28;20629;-68
2021/04/18 04:45:06;;;;;;;10.00;7.10;;;7.60;99.90;;;;;;5052574;28;20391;-68
2021/04/18 04:47:32;;;;;;;12.17;6.43;;;7.70;99.90;;;;;;5053765;28;20278;-68
2021/04/18 04:49:58;;;;;;;9.47;7.07;;;7.70;99.90;;;;;;5052420;28;20473;-68
2021/04/18 04:52:23;;;;;;;8.07;6.80;;;7.70;99.90;;;;;;5052364;28;20183;-68
2021/04/18 04:54:49;;;;;;;8.23;6.47;;;7.70;99.90;;;;;;5052578;28;20239;-68
2021/04/18 04:57:15;;;;;;;10.23;7.40;;;7.80;99.90;;;;;;5052415;28;20153;-68
2021/04/18 04:59:40;;;;;;;8.93;7.10;;;7.80;99.90;;;;;;5052324;28;20196;-68
2021/04/18 05:02:06;;;;;;;9.50;6.77;;;7.70;99.90;;;;;;5053062;28;20244;-68
2021/04/18 05:04:32;;;;;;;11.33;7.17;;;7.70;99.90;;;;;;5054908;28;20180;-68
2021/04/18 05:06:58;;;;;;;8.80;6.43;;;7.70;99.90;;;;;;5072222;28;20214;-68
2021/04/18 05:09:24;;;;;;;8.43;7.03;;;7.70;99.90;;;;;;5072349;28;20163;-68
2021/04/18 05:11:49;;;;;;;9.80;6.33;;;7.70;99.90;;;;;;5073045;28;20417;-68
2021/04/18 05:14:15;;;;;;;14.10;7.77;;;7.70;99.90;;;;;;5075719;28;20152;-68
2021/04/18 05:16:40;;;;;;;10.00;7.83;;;7.80;99.90;;;;;;5077176;28;20685;-68
2021/04/18 05:19:06;;;;;;;11.30;7.37;;;7.80;99.90;;;;;;5075840;28;20171;-68
2021/04/18 05:21:32;;;;;;;10.20;7.83;;;7.80;99.90;;;;;;5057619;28;20633;-68
2021/04/18 05:23:57;;;;;;;9.83;7.60;;;7.80;99.90;;;;;;5055786;28;20214;-68
2021/04/18 05:26:23;;;;;;;11.07;7.80;;;7.90;99.90;;;;;;5056425;28;20594;-68
2021/04/18 05:28:49;;;;;;;8.20;7.10;;;7.90;99.90;;;;;;5056746;28;20636;-68
2021/04/18 05:31:14;;;;;;;9.27;7.10;;;8.00;99.90;;;;;;5056404;28;20395;-68
2021/04/18 05:33:40;;;;;;;8.67;6.70;;;8.10;99.90;;;;;;5055542;28;20168;-68
2021/04/18 05:36:06;;;;;;;10.20;7.27;;;8.20;99.90;;;;;;5055556;28;20165;-68
2021/04/18 05:38:31;;;;;;;11.37;7.77;;;8.30;99.90;;;;;;5056105;28;20184;-68
2021/04/18 05:40:57;;;;;;;8.70;6.80;;;8.40;99.90;;;;;;5056009;28;20235;-68
2021/04/18 05:43:26;;;;;;;14.40;7.33;;;8.50;99.90;;;;;;5056406;28;20209;-68
2021/04/18 05:45:51;;;;;;;9.77;8.07;;;8.60;99.90;;;;;;5056304;28;20951;-68
2021/04/18 05:48:17;;;;;;;12.00;7.97;;;8.60;99.90;;;;;;5055296;28;20397;-68
2021/04/18 05:50:44;;;;;;;11.27;7.63;;;8.50;99.90;;;;;;5055016;28;20161;-68
2021/04/18 05:53:11;;;;;;;10.80;6.97;;;8.50;99.90;;;;;;5055186;28;20149;-68
2021/04/18 05:55:37;;;;;;;12.90;8.10;;;8.50;99.90;;;;;;5055897;28;20415;-68
2021/04/18 05:58:04;;;;;;;9.17;7.60;;;8.50;99.90;;;;;;5056172;28;20403;-68
2021/04/18 06:00:29;;;;;;;9.63;7.23;;;8.50;99.90;;;;;;5055357;28;20431;-68
2021/04/18 06:02:55;;;;;;;10.43;8.00;;;8.50;99.90;;;;;;5055162;28;20626;-68
2021/04/18 06:05:20;;;;;;;10.77;7.97;;;8.50;99.90;;;;;;5063529;28;20337;-68
2021/04/18 06:07:46;;;;;;;11.20;7.80;;;8.50;99.90;;;;;;5074773;28;20187;-68
2021/04/18 06:10:12;;;;;;;11.63;8.23;;;8.50;99.90;;;;;;5075582;28;20157;-68
2021/04/18 06:12:38;;;;;;;10.50;8.00;;;8.50;99.90;;;;;;5056426;28;20180;-68
2021/04/18 06:15:05;;;;;;;9.83;7.60;;;8.60;99.90;;;;;;5055227;28;20454;-68
2021/04/18 06:17:31;;;;;;;10.80;8.23;;;8.60;99.90;;;;;;5054852;28;20155;-68
2021/04/18 06:19:56;;;;;;;17.10;8.67;;;8.50;99.90;;;;;;5054722;28;20470;-69
2021/04/18 06:22:22;;;;;;;10.87;9.50;;;8.60;99.90;;;;;;5054848;28;20212;-69
2021/04/18 06:24:47;;;;;;;8.50;6.93;;;8.60;99.90;;;;;;5054945;28;20163;-68
2021/04/18 06:27:13;;;;;;;10.43;8.00;;;8.70;99.90;;;;;;5055610;28;20194;-68
2021/04/18 06:29:39;;;;;;;14.10;8.90;;;8.70;99.90;;;;;;5055640;28;20165;-69
2021/04/18 06:32:05;;;;;;;12.03;8.93;;;8.70;99.90;;;;;;5054384;28;20174;-68
2021/04/18 06:34:30;;;;;;;10.60;7.97;;;8.80;99.90;;;;;;5054282;28;20163;-68
2021/04/18 06:36:56;;;;;;;11.77;8.20;;;8.90;99.90;;;;;;5054474;28;20893;-68
2021/04/18 06:39:21;;;;;;;9.77;8.30;;;9.10;99.90;;;;;;5054372;28;20173;-68
2021/04/18 06:41:52;;;;;;;11.03;7.33;;;9.30;99.90;;;;;;5055637;28;20163;-68
2021/04/18 06:44:19;;;;;;;9.10;7.10;;;9.40;99.90;;;;;;5054689;28;20163;-68
2021/04/18 06:46:45;;;;;;;10.77;8.13;;;9.40;99.90;;;;;;5073589;28;20539;-68
2021/04/18 06:49:11;;;;;;;12.80;8.37;;;9.60;99.90;;;;;;5074225;28;20422;-68
2021/04/18 06:51:37;;;;;;;11.83;8.00;;;9.70;99.90;;;;;;5074034;28;20177;-68
2021/04/18 06:54:04;;;;;;;8.13;7.10;;;9.80;99.90;;;;;;5074313;28;20838;-68
2021/04/18 06:56:30;;;;;;;11.57;8.60;;;10.00;99.90;;;;;;5075156;28;20390;-68
2021/04/18 06:58:58;;;;;;;9.37;8.37;;;10.20;99.90;;;;;;5074069;28;20443;-68
2021/04/18 07:01:24;;;;;;;9.87;7.87;;;10.40;99.90;;;;;;5073138;28;20156;-68
2021/04/18 07:04:17;;;;;;;10.77;7.20;;;10.60;99.90;;;;;;5054049;28;20425;-68
2021/04/18 07:06:45;;;;;;;14.27;8.80;;;10.80;99.90;;;;;;5052914;28;20462;-68
2021/04/18 07:09:12;;;;;;;9.90;8.43;;;10.90;99.90;;;;;;5053800;28;20529;-68
2021/04/18 07:11:50;;;;;;;10.70;7.93;;;11.00;99.90;;;;;;5055372;28;20399;-68
2021/04/18 07:14:34;;;;;;;8.83;7.20;;;11.00;99.90;;;;;;5053895;28;20407;-68
2021/04/18 07:19:49;;;;;;;8.83;7.47;;;11.10;99.90;;;;;;5130849;27;20556;-68
2021/04/18 07:22:18;;;;;;;11.43;7.63;;;11.20;99.60;;;;;;5131736;28;20384;-68
2021/04/18 07:27:47;;;;;;;9.57;7.00;;;11.10;99.40;;;;;;5111605;27;20563;-68
2021/04/18 07:30:16;;;;;;;9.83;6.93;;;11.20;99.20;;;;;;5109755;28;20400;-68
2021/04/18 07:32:43;;;;;;;9.57;6.90;;;11.20;99.50;;;;;;5109533;28;20445;-68
2021/04/18 07:35:30;;;;;;;12.27;7.43;;;11.10;99.50;;;;;;5111100;28;20908;-68
2021/04/18 07:38:13;;;;;;;12.37;7.33;;;11.10;99.80;;;;;;5089509;28;20393;-68
2021/04/18 07:40:39;;;;;;;8.63;7.63;;;11.10;99.80;;;;;;5091829;28;20476;-68
2021/04/18 07:43:08;;;;;;;11.07;7.40;;;11.10;99.80;;;;;;5090340;28;20480;-68
2021/04/18 07:45:35;;;;;;;9.73;7.07;;;11.10;99.90;;;;;;5090013;28;20264;-68
2021/04/18 07:48:01;;;;;;;12.50;8.50;;;11.30;99.90;;;;;;5090201;28;20389;-68
2021/04/18 07:50:28;;;;;;;12.60;8.57;;;11.40;99.70;;;;;;5090259;28;20421;-68
2021/04/18 07:52:53;;;;;;;8.20;6.77;;;11.70;99.10;;;;;;5090845;28;20831;-68
2021/04/18 07:55:20;;;;;;;10.40;7.87;;;12.10;98.10;;;;;;5091600;28;20405;-68
2021/04/18 07:57:46;;;;;;;12.17;7.63;;;12.40;96.90;;;;;;5090161;28;20156;-68
2021/04/18 08:00:14;;;;;;;8.47;7.53;;;12.60;96.10;;;;;;5089860;28;20417;-68
2021/04/18 08:02:41;;;;;;;7.57;5.70;;;12.70;95.20;;;;;;5089968;28;20759;-68
2021/04/18 08:05:09;;;;;;;10.90;7.43;;;12.70;94.90;;;;;;5089785;28;20417;-68
2021/04/18 08:07:57;;;;;;;12.20;7.73;;;12.60;94.90;;;;;;5090210;28;20752;-68
2021/04/18 08:10:25;;;;;;;9.07;7.23;;;12.50;94.50;;;;;;5098545;28;20418;-68
2021/04/18 08:13:21;;;;;;;10.50;7.20;;;12.30;94.90;;;;;;5110172;28;20389;-68
2021/04/18 08:18:28;;;;;;;11.80;8.20;;;12.30;95.40;;;;;;5110923;27;20506;-68
2021/04/18 08:20:54;;;;;;;9.50;7.70;;;12.50;95.00;;;;;;5110892;28;20396;-68
2021/04/18 08:23:21;;;;;;;10.30;8.03;;;12.60;94.80;;;;;;5112190;28;20407;-68
2021/04/18 08:26:09;;;;;;;11.20;7.63;;;12.70;94.60;;;;;;5111040;28;20835;-68
2021/04/18 08:31:52;;;;;;;9.77;8.17;;;13.00;93.40;;;;;;5090837;28;20858;-68
2021/04/18 08:34:20;;;;;;;12.80;8.30;;;13.00;93.30;;;;;;5090817;28;20800;-68
2021/04/18 08:36:48;;;;;;;16.70;9.20;;;13.00;92.90;;;;;;5090945;28;20381;-68
2021/04/18 08:41:53;;;;;;;14.90;8.90;;;13.00;93.00;;;;;;5090677;27;20511;-68
2021/04/18 08:47:02;;;;;;;11.57;8.23;;;12.80;93.50;;;;;;5131513;27;20508;-68
2021/04/18 08:54:55;;;;;;;11.80;9.43;;;12.30;94.60;;;;;;5111217;27;20574;-68
2021/04/18 08:57:28;;;;;;;13.00;8.30;;;12.00;95.80;;;;;;5110987;28;20392;-68
2021/04/18 08:59:57;;;;;;;11.27;8.07;;;11.90;96.00;;;;;;5111180;28;20540;-68
2021/04/18 09:02:24;;;;;;;12.27;9.07;;;11.80;96.30;;;;;;5093325;28;20470;-68
2021/04/18 09:04:53;;;;;;;16.20;9.47;;;11.70;96.80;;;;;;5095026;28;20414;-68
2021/04/18 09:07:24;;;;;;;11.57;9.70;;;11.60;97.30;;;;;;5112256;28;20475;-68
2021/04/18 09:09:50;;;;;;;14.30;9.20;;;11.60;98.40;;;;;;5110728;28;20901;-68
2021/04/18 09:12:17;;;;;;;11.50;9.40;;;11.60;98.50;;;;;;5110676;28;20388;-68
2021/04/18 09:14:46;;;;;;;14.63;9.30;;;11.60;98.90;;;;;;5110439;28;20810;-68
2021/04/18 09:19:58;;;;;;;11.83;9.77;;;11.50;98.90;;;;;;5111191;27;20506;-68
2021/04/18 09:22:42;;;;;;;13.97;10.20;;;11.40;99.20;;;;;;5112339;28;20438;-68
2021/04/18 09:25:16;;;;;;;13.80;9.40;;;11.40;99.20;;;;;;5110816;28;20803;-68
2021/04/18 09:30:29;;;;;;;13.17;9.73;;;11.50;99.60;;;;;;5090724;27;20527;-68
2021/04/18 09:32:56;;;;;;;10.57;8.80;;;11.60;99.60;;;;;;5090563;28;20485;-68
2021/04/18 09:35:24;;;;;;;13.77;10.40;;;11.80;99.40;;;;;;5082178;28;20406;-68
2021/04/18 09:38:00;;;;;;;16.00;10.13;;;11.90;99.00;;;;;;5070802;28;20463;-68
2021/04/18 09:40:30;;;;;;;17.40;10.87;;;12.00;98.50;;;;;;5070252;28;20473;-68
2021/04/18 09:42:56;;;;;;;15.73;10.03;;;12.20;98.40;;;;;;5070243;28;20448;-68
2021/04/18 09:45:28;;;;;;;14.20;11.17;;;12.50;97.70;;;;;;5070392;28;20464;-68
2021/04/18 09:47:58;;;;;;;15.23;9.93;;;12.80;96.70;;;;;;5070100;28;20156;-68
2021/04/18 09:50:34;;;;;;;12.27;10.30;;;12.90;95.80;;;;;;5071306;28;20886;-69
2021/04/18 09:53:29;;;;;;;12.27;9.60;;;13.00;95.80;;;;;;5070785;28;20905;-68
2021/04/18 09:55:59;;;;;;;15.00;10.40;;;13.20;95.00;;;;;;5069047;28;20448;-68
2021/04/18 09:58:39;;;;;;;13.20;10.53;;;13.30;94.40;;;;;;5070026;28;20408;-68
2021/04/18 10:01:21;;;;;;;11.37;10.17;;;13.30;94.00;;;;;;5070085;28;20410;-68
2021/04/18 10:03:47;;;;;;;14.10;11.37;;;13.30;94.00;;;;;;5070023;28;20421;-69
2021/04/18 10:06:12;;;;;;;14.17;10.30;;;13.40;94.10;;;;;;5070744;28;20409;-68
2021/04/18 10:08:40;;;;;;;18.33;10.27;;;13.50;93.70;;;;;;5072188;28;20195;-68
2021/04/18 10:19:17;;;;;;;14.57;9.50;;;13.70;92.10;;;;;;5111800;27;20513;-67
2021/04/18 10:22:03;;;;;;;15.17;9.30;;;13.80;91.90;;;;;;5111429;28;20380;-67
2021/04/18 10:27:13;;;;;;;11.30;9.10;;;14.20;90.90;;;;;;5075193;28;20508;-68
2021/04/18 10:29:40;;;;;;;11.67;8.90;;;14.40;90.30;;;;;;5070288;28;20385;-67
2021/04/18 10:32:07;;;;;;;12.33;9.20;;;14.60;89.80;;;;;;5070246;28;20382;-67
2021/04/18 10:34:32;;;;;;;11.70;9.10;;;14.80;88.20;;;;;;5071704;28;20382;-67
2021/04/18 10:36:58;;;;;;;12.77;9.03;;;14.90;86.80;;;;;;5070263;28;20383;-67
2021/04/18 10:39:24;;;;;;;11.90;8.20;;;14.90;86.10;;;;;;5070217;28;20167;-68
2021/04/18 10:41:51;;;;;;;13.73;9.50;;;14.90;85.20;;;;;;5070144;28;20387;-67
2021/04/18 10:44:17;;;;;;;10.20;8.00;;;15.00;85.70;;;;;;5070151;28;20175;-67
2021/04/18 10:46:45;;;;;;;10.40;8.50;;;15.00;84.80;;;;;;5069768;28;20480;-67
2021/04/18 10:49:11;;;;;;;14.80;9.30;;;15.20;84.40;;;;;;5071482;28;20156;-68
2021/04/18 10:51:36;;;;;;;14.40;10.50;;;15.20;82.60;;;;;;5070090;28;20555;-68
2021/04/18 10:54:03;;;;;;;11.37;9.30;;;15.30;81.90;;;;;;5069893;28;20152;-68
2021/04/18 10:56:30;;;;;;;10.63;8.80;;;15.20;81.40;;;;;;5069804;28;20152;-67
2021/04/18 10:58:56;;;;;;;14.83;8.37;;;15.20;82.10;;;;;;5069673;28;20440;-68
2021/04/18 11:01:22;;;;;;;13.70;8.53;;;15.30;81.50;;;;;;5069720;28;20507;-68
2021/04/18 11:03:47;;;;;;;10.57;8.70;;;15.40;80.90;;;;;;5071067;28;20445;-68
2021/04/18 11:06:13;;;;;;;10.60;8.87;;;15.50;80.30;;;;;;5070122;28;20218;-67
2021/04/18 11:08:39;;;;;;;11.40;8.40;;;15.40;79.80;;;;;;5069908;28;20213;-67
2021/04/18 11:11:04;;;;;;;10.50;8.07;;;15.40;79.00;;;;;;5069570;28;20156;-67
2021/04/18 11:13:30;;;;;;;15.60;8.67;;;15.50;78.60;;;;;;5069464;28;20147;-67
2021/04/18 11:15:56;;;;;;;10.97;8.67;;;15.50;77.90;;;;;;5069557;28;20398;-67
2021/04/18 11:18:21;;;;;;;10.90;8.47;;;15.40;77.90;;;;;;5070809;28;20213;-68
2021/04/18 11:20:47;;;;;;;10.67;8.63;;;15.30;78.40;;;;;;5069415;28;20156;-67
2021/04/18 11:23:12;;;;;;;15.10;8.70;;;15.20;79.10;;;;;;5069296;28;20609;-67
2021/04/18 11:25:38;;;;;;;11.63;8.53;;;15.10;79.90;;;;;;5068980;28;20203;-67
2021/04/18 11:28:04;;;;;;;10.87;9.30;;;15.00;80.90;;;;;;5069189;28;20163;-67
2021/04/18 11:30:29;;;;;;;11.93;8.97;;;14.90;79.60;;;;;;5070399;28;20625;-67
2021/04/18 11:32:55;;;;;;;13.10;9.40;;;14.90;79.80;;;;;;5070524;28;20152;-68
2021/04/18 11:35:21;;;;;;;12.70;9.60;;;14.90;79.90;;;;;;5069016;28;20176;-68
2021/04/18 11:37:47;;;;;;;14.47;9.83;;;15.00;80.20;;;;;;5060010;28;20214;-68
2021/04/18 11:40:14;;;;;;;11.83;9.40;;;15.00;79.60;;;;;;5055807;28;20157;-67
2021/04/18 11:42:45;;;;;;;13.13;9.40;;;15.00;79.80;;;;;;5055799;28;20409;-67
2021/04/18 11:45:11;;;;;;;12.07;9.20;;;15.00;79.50;;;;;;5056025;28;20446;-67
2021/04/18 11:47:37;;;;;;;11.47;9.07;;;15.00;80.00;;;;;;5056606;28;20447;-67
2021/04/18 11:50:03;;;;;;;10.97;9.80;;;15.10;80.50;;;;;;5055707;28;20391;-67
2021/04/18 11:52:29;;;;;;;11.67;9.23;;;15.20;80.10;;;;;;5055413;28;20211;-67
2021/04/18 11:54:54;;;;;;;14.70;10.10;;;15.30;80.30;;;;;;5055414;28;20441;-67
2021/04/18 11:57:20;;;;;;;14.43;9.80;;;15.40;79.50;;;;;;5055360;28;20159;-67
2021/04/18 11:59:46;;;;;;;14.60;9.90;;;15.40;78.80;;;;;;5055695;28;20191;-68
2021/04/18 12:02:11;;;;;;;12.77;10.10;;;15.40;78.40;;;;;;5057335;28;20156;-67
2021/04/18 12:04:37;;;;;;;10.93;9.80;;;15.20;78.90;;;;;;5055405;28;20175;-68
2021/04/18 12:07:02;;;;;;;14.47;10.70;;;15.10;79.80;;;;;;5055211;28;20268;-68
2021/04/18 12:09:29;;;;;;;12.60;10.10;;;14.80;80.80;;;;;;5055049;28;20633;-67
2021/04/18 12:11:55;;;;;;;13.97;10.80;;;14.70;82.00;;;;;;5055121;28;20609;-67
2021/04/18 12:14:20;;;;;;;17.03;10.80;;;14.70;82.40;;;;;;5055311;28;20596;-67
2021/04/18 12:16:46;;;;;;;12.23;9.63;;;14.90;83.20;;;;;;5056399;28;20243;-68
2021/04/18 12:19:11;;;;;;;12.30;9.43;;;15.00;82.10;;;;;;5055054;28;20169;-68
2021/04/18 12:21:37;;;;;;;13.70;8.77;;;15.10;82.10;;;;;;5054726;28;20172;-68
2021/04/18 12:24:04;;;;;;;16.57;10.97;;;15.10;82.00;;;;;;5054957;28;20270;-67
2021/04/18 12:26:29;;;;;;;13.13;9.90;;;15.00;81.30;;;;;;5054577;28;20212;-67
2021/04/18 12:28:55;;;;;;;14.57;11.00;;;14.90;82.60;;;;;;5055418;28;20950;-67
2021/04/18 12:31:21;;;;;;;13.23;10.93;;;14.90;83.20;;;;;;5055844;28;20200;-68
2021/04/18 12:33:46;;;;;;;12.90;11.37;;;15.00;84.50;;;;;;5054677;28;20399;-67
2021/04/18 12:36:12;;;;;;;14.73;12.93;;;15.10;83.30;;;;;;5054801;28;20191;-67
2021/04/18 12:38:40;;;;;;;14.83;10.40;;;15.20;83.60;;;;;;5054601;28;20562;-67
2021/04/18 12:41:07;;;;;;;12.20;9.67;;;15.50;83.30;;;;;;5055108;28;20259;-67
2021/04/18 12:43:33;;;;;;;9.57;8.27;;;15.70;82.50;;;;;;5055086;28;20472;-68
2021/04/18 12:46:00;;;;;;;10.70;8.87;;;15.90;79.80;;;;;;5055634;28;20970;-68
2021/04/18 12:48:26;;;;;;;12.70;8.73;;;16.10;79.30;;;;;;5053832;28;20756;-68
2021/04/18 12:50:51;;;;;;;10.00;8.63;;;16.20;77.30;;;;;;5054105;28;20391;-67
2021/04/18 12:53:17;;;;;;;15.93;13.87;;;16.00;77.60;;;;;;5054303;28;20160;-67
2021/04/18 12:55:42;;;;;;;17.33;9.80;;;15.90;78.00;;;;;;5055147;28;20156;-67
2021/04/18 12:58:08;;;;;;;11.03;9.37;;;15.60;79.10;;;;;;5054767;28;20213;-67
2021/04/18 13:00:33;;;;;;;11.00;9.90;;;15.40;80.00;;;;;;5054626;28;20270;-67
2021/04/18 13:03:00;;;;;;;11.83;10.27;;;15.20;81.60;;;;;;5054178;28;20160;-67
2021/04/18 13:05:26;;;;;;;17.60;9.73;;;15.00;82.20;;;;;;5053985;28;20291;-67
2021/04/18 13:07:51;;;;;;;14.10;10.73;;;14.90;82.70;;;;;;5053966;28;20488;-67
2021/04/18 13:10:17;;;;;;;13.63;10.70;;;14.70;83.70;;;;;;5054364;28;20148;-67
2021/04/18 13:12:43;;;;;;;12.63;10.87;;;14.70;84.50;;;;;;5054644;28;20158;-67
2021/04/18 13:15:11;;;;;;;12.73;10.93;;;14.60;84.80;;;;;;5054552;28;20171;-67
2021/04/18 13:17:37;;;;;;;12.33;11.03;;;14.50;85.50;;;;;;5053696;28;20180;-67
2021/04/18 13:20:04;;;;;;;15.50;10.30;;;14.50;86.50;;;;;;5053807;28;20395;-67
2021/04/18 13:22:30;;;;;;;13.60;10.87;;;14.40;87.20;;;;;;5053876;28;20157;-67